createdAt,value
2024-03-14T00:00:43.956Z,6.43
2024-03-14T00:02:48.752Z,6.34
2024-03-14T00:04:51.617Z,6.36
2024-03-14T00:06:54.348Z,6.20
2024-03-14T00:08:57.708Z,6.01
2024-03-14T00:11:00.492Z,5.88
2024-03-14T00:13:03.236Z,5.75
2024-03-14T00:15:07.271Z,5.53
2024-03-14T00:17:11.114Z,5.39
2024-03-14T00:19:13.847Z,5.27
2024-03-14T00:21:17.535Z,5.23
2024-03-14T00:23:22.923Z,5.06
2024-03-14T00:25:27.547Z,4.98
2024-03-14T00:27:30.461Z,4.88
2024-03-14T00:29:33.257Z,4.95
2024-03-14T00:31:42.656Z,4.91
2024-03-14T00:33:46.193Z,4.82
2024-03-14T00:35:49.111Z,4.79
2024-03-14T00:37:52.666Z,4.65
2024-03-14T00:39:55.509Z,4.64
2024-03-14T00:41:58.265Z,4.54
2024-03-14T00:44:02.485Z,4.49
2024-03-14T00:46:06.145Z,4.47
2024-03-14T00:48:08.974Z,4.49
2024-03-14T00:50:11.799Z,4.35
2024-03-14T00:52:14.579Z,4.33
2024-03-14T00:54:17.367Z,4.16
2024-03-14T00:56:20.169Z,4.07
2024-03-14T00:58:22.903Z,4.07
2024-03-14T01:00:25.740Z,4.11
2024-03-14T01:02:28.806Z,4.02
2024-03-14T01:04:31.564Z,4.04
2024-03-14T01:06:35.198Z,4.07
2024-03-14T01:08:42.134Z,4.07
2024-03-14T01:10:44.862Z,4.15
2024-03-14T01:12:47.656Z,4.15
2024-03-14T01:14:51.849Z,4.07
2024-03-14T01:16:54.725Z,4.04
2024-03-14T01:18:57.708Z,4.05
2024-03-14T01:21:01.283Z,4.08
2024-03-14T01:23:04.091Z,4.03
2024-03-14T01:25:07.299Z,4.00
2024-03-14T01:27:10.385Z,3.86
2024-03-14T01:29:13.168Z,3.81
2024-03-14T01:31:19.509Z,3.84
2024-03-14T01:33:22.667Z,3.84
2024-03-14T01:35:25.981Z,3.68
2024-03-14T01:37:28.730Z,3.56
2024-03-14T01:39:32.623Z,3.58
2024-03-14T01:41:35.491Z,3.51
2024-03-14T01:43:38.241Z,3.49
2024-03-14T01:45:43.659Z,3.49
2024-03-14T01:47:47.141Z,3.39
2024-03-14T01:49:52.208Z,3.30
2024-03-14T01:51:54.942Z,3.28
2024-03-14T01:53:57.853Z,3.27
2024-03-14T01:56:00.851Z,3.36
2024-03-14T01:58:05.737Z,3.36
2024-03-14T02:00:12.594Z,3.41
2024-03-14T02:02:15.810Z,3.36
2024-03-14T02:04:28.477Z,3.41
2024-03-14T02:06:41.450Z,3.38
2024-03-14T02:08:46.001Z,3.48
2024-03-14T02:10:48.775Z,3.56
2024-03-14T02:12:55.209Z,3.63
2024-03-14T02:14:58.065Z,3.69
2024-03-14T02:17:02.171Z,3.72
2024-03-14T02:19:04.913Z,3.63
2024-03-14T02:21:08.216Z,3.55
2024-03-14T02:23:11.386Z,3.51
2024-03-14T02:25:17.708Z,3.42
2024-03-14T02:27:21.367Z,3.34
2024-03-14T02:29:24.250Z,3.29
2024-03-14T02:31:26.985Z,3.32
2024-03-14T02:33:29.824Z,3.30
2024-03-14T02:35:33.661Z,3.32
2024-03-14T02:37:36.443Z,3.23
2024-03-14T02:39:40.096Z,3.21
2024-03-14T02:41:42.912Z,3.30
2024-03-14T02:43:47.470Z,3.26
2024-03-14T02:45:50.220Z,3.28
2024-03-14T02:47:53.027Z,3.28
2024-03-14T02:49:58.378Z,3.16
2024-03-14T02:52:01.373Z,3.04
2024-03-14T02:54:06.404Z,3.10
2024-03-14T02:56:12.106Z,3.14
2024-03-14T02:58:14.843Z,3.06
2024-03-14T03:00:19.708Z,3.04
2024-03-14T03:02:23.940Z,3.06
2024-03-14T03:04:31.554Z,3.11
2024-03-14T03:06:35.111Z,2.96
2024-03-14T03:08:38.410Z,2.83
2024-03-14T03:10:41.251Z,2.81
2024-03-14T03:12:44.162Z,2.70
2024-03-14T03:14:47.091Z,2.67
2024-03-14T03:16:50.572Z,2.65
2024-03-14T03:18:54.178Z,2.58
2024-03-14T03:20:57.044Z,2.62
2024-03-14T03:23:07.423Z,2.72
2024-03-14T03:25:10.319Z,2.74
2024-03-14T03:27:16.464Z,2.69
2024-03-14T03:29:19.225Z,2.66
2024-03-14T03:31:21.998Z,2.55
2024-03-14T03:33:25.354Z,2.43
2024-03-14T03:35:28.282Z,2.33
2024-03-14T03:37:31.049Z,2.31
2024-03-14T03:39:34.013Z,2.34
2024-03-14T03:41:38.583Z,2.30
2024-03-14T03:43:41.418Z,2.27
2024-03-14T03:45:44.340Z,2.19
2024-03-14T03:47:47.208Z,2.14
2024-03-14T03:49:50.102Z,2.11
2024-03-14T03:51:53.589Z,2.17
2024-03-14T03:53:56.415Z,2.10
2024-03-14T03:56:01.518Z,2.03
2024-03-14T03:58:04.303Z,1.94
2024-03-14T04:00:27.374Z,1.94
2024-03-14T04:02:30.297Z,1.92
2024-03-14T04:04:34.702Z,1.88
2024-03-14T04:06:37.486Z,1.98
2024-03-14T04:08:41.532Z,1.94
2024-03-14T04:10:44.544Z,1.82
2024-03-14T04:12:47.427Z,1.76
2024-03-14T04:14:50.333Z,1.86
2024-03-14T04:16:53.997Z,1.82
2024-03-14T04:18:57.097Z,1.75
2024-03-14T04:20:59.907Z,1.83
2024-03-14T04:23:02.691Z,1.87
2024-03-14T04:25:05.530Z,1.75
2024-03-14T04:27:08.296Z,1.67
2024-03-14T04:29:12.422Z,1.66
2024-03-14T04:31:15.165Z,1.65
2024-03-14T04:33:19.227Z,1.59
2024-03-14T04:35:23.167Z,1.68
2024-03-14T04:37:28.792Z,1.59
2024-03-14T04:39:31.572Z,1.62
2024-03-14T04:41:35.177Z,1.51
2024-03-14T04:43:37.924Z,1.43
2024-03-14T04:45:42.319Z,1.40
2024-03-14T04:47:48.256Z,1.40
2024-03-14T04:49:54.635Z,1.36
2024-03-14T04:51:57.556Z,1.40
2024-03-14T04:54:00.299Z,1.39
2024-03-14T04:56:04.369Z,1.40
2024-03-14T04:58:07.544Z,1.43
2024-03-14T05:00:29.007Z,1.35
2024-03-14T05:02:33.703Z,1.40
2024-03-14T05:04:36.492Z,1.34
2024-03-14T05:06:40.425Z,1.30
2024-03-14T05:08:43.738Z,1.32
2024-03-14T05:10:47.172Z,1.38
2024-03-14T05:12:50.382Z,1.41
2024-03-14T05:14:53.261Z,1.37
2024-03-14T05:16:56.043Z,1.38
2024-03-14T05:18:58.814Z,1.45
2024-03-14T05:21:01.661Z,1.45
2024-03-14T05:23:04.479Z,1.52
2024-03-14T05:25:08.615Z,1.53
2024-03-14T05:27:11.461Z,1.51
2024-03-14T05:29:14.209Z,1.52
2024-03-14T05:31:18.413Z,1.49
2024-03-14T05:33:21.679Z,1.52
2024-03-14T05:35:24.459Z,1.51
2024-03-14T05:37:27.231Z,1.53
2024-03-14T05:39:30.467Z,1.67
2024-03-14T05:41:33.587Z,1.68
2024-03-14T05:43:36.360Z,1.76
2024-03-14T05:45:39.176Z,1.89
2024-03-14T05:47:42.043Z,1.89
2024-03-14T05:49:45.032Z,2.03
2024-03-14T05:51:47.821Z,2.15
2024-03-14T05:53:50.574Z,2.16
2024-03-14T05:55:53.727Z,2.20
2024-03-14T05:57:56.837Z,2.37
2024-03-14T05:59:59.754Z,2.36
2024-03-14T06:02:02.607Z,2.38
2024-03-14T06:04:06.380Z,2.50
2024-03-14T06:06:09.440Z,2.59
2024-03-14T06:08:12.226Z,2.74
2024-03-14T06:10:16.198Z,2.87
2024-03-14T06:12:19.068Z,3.17
2024-03-14T06:14:26.781Z,3.56
2024-03-14T06:16:32.353Z,3.97
2024-03-14T06:18:36.785Z,4.30
2024-03-14T06:20:39.998Z,4.62
2024-03-14T06:22:45.822Z,5.13
2024-03-14T06:24:52.868Z,5.23
2024-03-14T06:26:55.954Z,5.60
2024-03-14T06:28:58.761Z,6.16
2024-03-14T06:31:04.321Z,6.83
2024-03-14T06:33:07.204Z,7.47
2024-03-14T06:35:11.285Z,8.00
2024-03-14T06:37:14.028Z,8.68
2024-03-14T06:39:18.803Z,9.05
2024-03-14T06:41:22.538Z,9.35
2024-03-14T06:43:25.726Z,9.94
2024-03-14T06:45:28.683Z,10.32
2024-03-14T06:47:31.505Z,10.71
2024-03-14T06:49:37.698Z,11.13
2024-03-14T06:51:44.048Z,11.36
2024-03-14T06:53:47.375Z,11.25
2024-03-14T06:55:52.470Z,11.14
2024-03-14T06:57:55.264Z,11.14
2024-03-14T06:59:58.151Z,11.16
2024-03-14T07:02:01.378Z,10.93
2024-03-14T07:04:05.546Z,10.56
2024-03-14T07:06:17.724Z,10.26
2024-03-14T07:08:22.216Z,10.26
2024-03-14T07:10:25.395Z,10.51
2024-03-14T07:12:28.299Z,10.59
2024-03-14T07:14:31.350Z,10.63
2024-03-14T07:16:34.203Z,10.62
2024-03-14T07:18:38.310Z,10.94
2024-03-14T07:20:44.714Z,11.57
2024-03-14T07:22:47.670Z,11.76
2024-03-14T07:24:50.479Z,11.63
2024-03-14T07:26:54.438Z,11.66
2024-03-14T07:28:58.526Z,12.20
2024-03-14T07:31:01.616Z,12.45
2024-03-14T07:33:04.644Z,12.34
2024-03-14T07:35:10.272Z,12.36
2024-03-14T07:37:17.120Z,12.23
2024-03-14T07:39:26.804Z,12.19
2024-03-14T07:41:31.301Z,12.36
2024-03-14T07:43:35.253Z,12.80
2024-03-14T07:45:38.117Z,13.08
2024-03-14T07:47:43.023Z,13.60
2024-03-14T07:49:46.621Z,14.06
2024-03-14T07:51:50.438Z,14.25
2024-03-14T07:53:53.443Z,14.46
2024-03-14T07:55:56.661Z,14.71
2024-03-14T07:57:59.428Z,14.78
2024-03-14T08:00:03.263Z,15.05
2024-03-14T08:02:13.618Z,14.87
2024-03-14T08:04:24.359Z,14.59
2024-03-14T08:06:28.960Z,14.54
2024-03-14T08:08:31.724Z,14.30
2024-03-14T08:10:34.767Z,14.46
2024-03-14T08:12:37.580Z,15.09
2024-03-14T08:14:45.360Z,15.33
2024-03-14T08:16:48.594Z,16.37
2024-03-14T08:18:52.822Z,15.95
2024-03-14T08:21:00.405Z,16.31
2024-03-14T08:23:05.818Z,16.18
2024-03-14T08:25:17.509Z,16.19
2024-03-14T08:27:26.148Z,15.80
2024-03-14T08:29:29.475Z,15.24
2024-03-14T08:31:32.272Z,15.34
2024-03-14T08:33:37.959Z,15.28
2024-03-14T08:35:44.075Z,15.62
2024-03-14T08:37:47.604Z,15.83
2024-03-14T08:39:50.872Z,16.79
2024-03-14T08:41:54.938Z,16.94
2024-03-14T08:43:58.237Z,18.16
2024-03-14T08:46:02.528Z,18.46
2024-03-14T08:48:09.071Z,18.41
2024-03-14T08:50:12.444Z,18.43
2024-03-14T08:52:15.389Z,18.51
2024-03-14T08:54:24.286Z,18.48
2024-03-14T08:56:27.073Z,18.52
2024-03-14T08:58:31.294Z,18.83
2024-03-14T09:00:34.628Z,19.08
2024-03-14T09:02:41.631Z,20.07
2024-03-14T09:04:48.462Z,20.33
2024-03-14T09:06:51.591Z,20.77
2024-03-14T09:08:54.356Z,21.05
2024-03-14T09:10:57.780Z,21.52
2024-03-14T09:13:01.338Z,21.77
2024-03-14T09:15:04.227Z,22.06
2024-03-14T09:17:07.367Z,22.30
2024-03-14T09:19:10.171Z,22.47
2024-03-14T09:21:13.216Z,22.52
2024-03-14T09:23:21.371Z,22.53
2024-03-14T09:25:27.651Z,22.91
2024-03-14T09:27:34.390Z,23.05
2024-03-14T09:29:37.422Z,23.32
2024-03-14T09:31:47.192Z,23.33
2024-03-14T09:33:50.947Z,23.38
2024-03-14T09:35:53.939Z,23.38
2024-03-14T09:37:57.172Z,23.29
2024-03-14T09:40:00.140Z,23.22
2024-03-14T09:42:02.968Z,23.36
2024-03-14T09:44:05.759Z,23.03
2024-03-14T09:46:10.987Z,23.18
2024-03-14T09:48:13.958Z,23.19
2024-03-14T09:50:21.640Z,23.16
2024-03-14T09:52:25.264Z,23.37
2024-03-14T09:54:28.419Z,23.14
2024-03-14T09:56:32.194Z,22.76
2024-03-14T09:58:34.948Z,23.13
2024-03-14T10:00:37.986Z,22.74
2024-03-14T10:02:42.831Z,23.15
2024-03-14T10:04:45.620Z,22.94
2024-03-14T10:06:49.385Z,22.77
2024-03-14T10:08:55.137Z,22.91
2024-03-14T10:10:57.889Z,23.03
2024-03-14T10:13:00.779Z,22.95
2024-03-14T10:15:07.542Z,22.94
2024-03-14T10:17:12.274Z,22.79
2024-03-14T10:19:16.924Z,22.09
2024-03-14T10:21:19.978Z,21.85
2024-03-14T10:23:22.825Z,22.01
2024-03-14T10:25:26.399Z,21.73
2024-03-14T10:27:30.959Z,21.85
2024-03-14T10:29:34.531Z,21.71
2024-03-14T10:31:38.436Z,21.92
2024-03-14T10:33:42.041Z,21.80
2024-03-14T10:35:46.737Z,21.57
2024-03-14T10:37:50.652Z,21.48
2024-03-14T10:39:56.294Z,21.55
2024-03-14T10:41:59.131Z,21.14
2024-03-14T10:44:05.086Z,21.45
2024-03-14T10:46:15.074Z,20.81
2024-03-14T10:48:19.770Z,21.11
2024-03-14T10:50:23.457Z,20.83
2024-03-14T10:52:27.425Z,20.91
2024-03-14T10:54:35.339Z,21.11
2024-03-14T10:56:41.702Z,20.95
2024-03-14T10:58:48.726Z,20.84
2024-03-14T11:00:53.215Z,20.68
2024-03-14T11:02:58.744Z,21.13
2024-03-14T11:05:01.954Z,21.38
2024-03-14T11:07:08.982Z,21.09
2024-03-14T11:09:15.973Z,21.21
2024-03-14T11:11:20.342Z,21.00
2024-03-14T11:13:31.962Z,20.59
2024-03-14T11:15:38.269Z,20.33
2024-03-14T11:17:44.294Z,20.64
2024-03-14T11:19:50.736Z,20.54
2024-03-14T11:21:54.995Z,20.53
2024-03-14T11:24:00.557Z,20.80
2024-03-14T11:26:09.121Z,21.13
2024-03-14T11:28:14.198Z,20.59
2024-03-14T11:30:20.512Z,20.93
2024-03-14T11:32:25.179Z,20.61
2024-03-14T11:34:27.942Z,20.09
2024-03-14T11:36:32.542Z,20.26
2024-03-14T11:38:35.434Z,20.46
2024-03-14T11:40:38.470Z,20.38
2024-03-14T11:42:50.664Z,20.19
2024-03-14T11:44:53.427Z,20.74
2024-03-14T11:46:58.831Z,20.74
2024-03-14T11:49:15.154Z,20.84
2024-03-14T11:51:20.342Z,20.81
2024-03-14T11:53:24.558Z,20.69
2024-03-14T11:55:30.577Z,20.20
2024-03-14T11:57:35.080Z,20.51
2024-03-14T11:59:40.873Z,20.72
2024-03-14T12:01:50.952Z,20.76
2024-03-14T12:03:54.678Z,20.57
2024-03-14T12:06:07.996Z,20.67
2024-03-14T12:08:16.978Z,20.77
2024-03-14T12:10:20.675Z,20.38
2024-03-14T12:12:24.621Z,20.02
2024-03-14T12:14:29.757Z,20.12
2024-03-14T12:16:33.731Z,19.97
2024-03-14T12:18:37.475Z,19.70
2024-03-14T12:20:48.243Z,19.46
2024-03-14T12:22:52.602Z,19.08
2024-03-14T12:24:56.825Z,19.05
2024-03-14T12:26:59.960Z,19.35
2024-03-14T12:29:03.326Z,19.44
2024-03-14T12:31:06.133Z,18.79
2024-03-14T12:33:13.288Z,18.19
2024-03-14T12:35:18.295Z,18.49
2024-03-14T12:37:24.004Z,17.98
2024-03-14T12:39:29.635Z,17.72
2024-03-14T12:41:34.914Z,17.53
2024-03-14T12:43:39.130Z,17.07
2024-03-14T12:45:42.554Z,16.95
2024-03-14T12:47:48.446Z,16.51
2024-03-14T12:49:51.304Z,16.45
2024-03-14T12:51:59.442Z,16.34
2024-03-14T12:54:03.319Z,16.74
2024-03-14T12:56:09.005Z,16.90
2024-03-14T12:58:23.341Z,17.02
2024-03-14T13:00:27.876Z,17.16
2024-03-14T13:02:31.095Z,17.25
2024-03-14T13:04:39.632Z,17.34
2024-03-14T13:06:42.552Z,17.40
2024-03-14T13:08:46.631Z,17.55
2024-03-14T13:10:49.712Z,17.33
2024-03-14T13:13:01.531Z,17.15
2024-03-14T13:15:16.304Z,17.42
2024-03-14T13:17:19.362Z,17.33
2024-03-14T13:19:23.416Z,17.39
2024-03-14T13:21:27.026Z,17.39
2024-03-14T13:23:30.784Z,17.35
2024-03-14T13:25:38.106Z,17.16
2024-03-14T13:27:41.845Z,17.17
2024-03-14T13:29:45.509Z,17.09
2024-03-14T13:31:48.248Z,17.00
2024-03-14T13:33:52.298Z,16.80
2024-03-14T13:35:55.241Z,16.77
2024-03-14T13:37:58.975Z,16.63
2024-03-14T13:40:01.869Z,16.46
2024-03-14T13:42:04.884Z,16.21
2024-03-14T13:44:08.017Z,15.99
2024-03-14T13:46:12.837Z,15.96
2024-03-14T13:48:18.967Z,15.96
2024-03-14T13:50:22.409Z,15.99
2024-03-14T13:52:25.467Z,15.95
2024-03-14T13:54:30.233Z,15.86
2024-03-14T13:56:33.100Z,15.92
2024-03-14T13:58:42.934Z,15.97
2024-03-14T14:00:51.594Z,15.84
2024-03-14T14:03:01.869Z,15.84
2024-03-14T14:05:05.861Z,15.76
2024-03-14T14:07:10.012Z,15.60
2024-03-14T14:09:12.976Z,15.67
2024-03-14T14:11:15.998Z,15.61
2024-03-14T14:13:22.048Z,15.59
2024-03-14T14:15:25.145Z,15.48
2024-03-14T14:17:28.037Z,15.41
2024-03-14T14:19:32.383Z,15.26
2024-03-14T14:21:38.849Z,15.16
2024-03-14T14:23:41.808Z,15.08
2024-03-14T14:25:46.107Z,14.96
2024-03-14T14:27:49.005Z,14.93
2024-03-14T14:29:54.115Z,14.94
2024-03-14T14:31:56.869Z,14.92
2024-03-14T14:33:59.773Z,14.94
2024-03-14T14:36:03.404Z,14.93
2024-03-14T14:38:06.834Z,14.78
2024-03-14T14:40:12.306Z,14.76
2024-03-14T14:42:16.991Z,14.78
2024-03-14T14:44:19.762Z,14.82
2024-03-14T14:46:22.529Z,14.84
2024-03-14T14:48:28.788Z,14.87
2024-03-14T14:50:31.614Z,14.84
2024-03-14T14:52:37.600Z,14.73
2024-03-14T14:54:40.399Z,14.66
2024-03-14T14:56:45.597Z,14.61
2024-03-14T14:58:49.533Z,14.48
2024-03-14T15:00:52.821Z,14.38
2024-03-14T15:02:55.722Z,14.31
2024-03-14T15:05:00.327Z,14.30
2024-03-14T15:07:03.262Z,14.17
2024-03-14T15:09:06.373Z,14.08
2024-03-14T15:11:10.482Z,13.95
2024-03-14T15:13:14.096Z,13.92
2024-03-14T15:15:23.961Z,13.84
2024-03-14T15:17:27.759Z,13.76
2024-03-14T15:19:38.785Z,13.75
2024-03-14T15:21:41.768Z,13.66
2024-03-14T15:23:46.941Z,13.61
2024-03-14T15:25:51.320Z,13.60
2024-03-14T15:27:54.711Z,13.56
2024-03-14T15:29:58.538Z,13.62
2024-03-14T15:32:02.633Z,13.61
2024-03-14T15:34:05.490Z,13.70
2024-03-14T15:36:13.909Z,13.66
2024-03-14T15:38:17.515Z,13.72
2024-03-14T15:40:23.424Z,13.67
2024-03-14T15:42:26.242Z,13.66
2024-03-14T15:44:29.047Z,13.71
2024-03-14T15:46:32.261Z,13.68
2024-03-14T15:48:35.120Z,13.63
2024-03-14T15:50:39.107Z,13.64
2024-03-14T15:52:41.868Z,13.63
2024-03-14T15:54:44.685Z,13.58
2024-03-14T15:56:47.440Z,13.55
2024-03-14T15:58:50.404Z,13.49
2024-03-14T16:00:53.707Z,13.55
2024-03-14T16:02:56.690Z,13.47
2024-03-14T16:04:59.484Z,13.40
2024-03-14T16:07:02.325Z,13.35
2024-03-14T16:09:11.051Z,13.30
2024-03-14T16:11:13.893Z,13.27
2024-03-14T16:13:17.269Z,13.23
2024-03-14T16:15:23.055Z,13.05
2024-03-14T16:17:28.263Z,13.09
2024-03-14T16:19:31.249Z,12.97
2024-03-14T16:21:34.354Z,12.86
2024-03-14T16:23:37.181Z,12.81
2024-03-14T16:25:39.930Z,12.75
2024-03-14T16:27:42.774Z,12.67
2024-03-14T16:29:45.541Z,12.56
2024-03-14T16:31:48.348Z,12.41
2024-03-14T16:33:51.245Z,12.30
2024-03-14T16:35:54.080Z,12.19
2024-03-14T16:38:00.205Z,11.97
2024-03-14T16:40:04.284Z,11.76
2024-03-14T16:42:08.395Z,11.58
2024-03-14T16:44:11.171Z,11.40
2024-03-14T16:46:17.724Z,11.19
2024-03-14T16:48:20.917Z,11.09
2024-03-14T16:50:25.497Z,10.94
2024-03-14T16:52:28.407Z,10.81
2024-03-14T16:54:32.907Z,10.65
2024-03-14T16:56:35.793Z,10.44
2024-03-14T16:58:38.587Z,10.37
2024-03-14T17:00:42.912Z,10.26
2024-03-14T17:02:49.012Z,10.16
2024-03-14T17:04:55.752Z,10.03
2024-03-14T17:06:58.499Z,9.86
2024-03-14T17:09:05.485Z,9.74
2024-03-14T17:11:09.673Z,9.57
2024-03-14T17:13:15.194Z,9.46
2024-03-14T17:15:19.630Z,9.34
2024-03-14T17:17:22.579Z,9.23
2024-03-14T17:19:25.818Z,9.07
2024-03-14T17:21:28.637Z,8.96
2024-03-14T17:23:32.484Z,8.90
2024-03-14T17:25:35.257Z,8.90
2024-03-14T17:27:42.032Z,8.79
2024-03-14T17:29:44.862Z,8.65
2024-03-14T17:31:49.937Z,8.55
2024-03-14T17:33:56.570Z,8.48
2024-03-14T17:35:59.457Z,8.36
2024-03-14T17:38:02.874Z,8.31
2024-03-14T17:40:12.795Z,8.18
2024-03-14T17:42:19.679Z,8.17
2024-03-14T17:44:28.037Z,8.02
2024-03-14T17:46:34.002Z,7.93
2024-03-14T17:48:39.822Z,7.79
2024-03-14T17:50:43.391Z,7.82
2024-03-14T17:52:47.323Z,7.77
2024-03-14T17:54:50.278Z,7.64
2024-03-14T17:56:57.917Z,7.56
2024-03-14T17:59:03.684Z,7.52
2024-03-14T18:01:09.823Z,7.61
2024-03-14T18:03:12.971Z,7.49
2024-03-14T18:05:15.859Z,7.42
2024-03-14T18:07:18.804Z,7.44
2024-03-14T18:09:21.602Z,7.42
2024-03-14T18:11:24.381Z,7.23
2024-03-14T18:13:27.407Z,7.17
2024-03-14T18:15:30.399Z,7.10
2024-03-14T18:17:34.654Z,7.05
2024-03-14T18:19:37.619Z,6.96
2024-03-14T18:21:43.289Z,6.82
2024-03-14T18:23:46.515Z,6.87
2024-03-14T18:25:49.536Z,6.85
2024-03-14T18:27:53.350Z,6.75
2024-03-14T18:29:56.196Z,6.68
2024-03-14T18:31:59.207Z,6.62
2024-03-14T18:34:02.653Z,6.60
2024-03-14T18:36:05.629Z,6.52
2024-03-14T18:38:08.833Z,6.43
2024-03-14T18:40:13.204Z,6.40
2024-03-14T18:42:19.142Z,6.34
2024-03-14T18:44:26.010Z,6.36
2024-03-14T18:46:30.317Z,6.39
2024-03-14T18:48:36.533Z,6.25
2024-03-14T18:50:40.098Z,6.15
2024-03-14T18:52:43.440Z,6.12
2024-03-14T18:54:49.619Z,6.03
2024-03-14T18:56:53.768Z,5.97
2024-03-14T18:58:58.420Z,5.92
2024-03-14T19:01:08.005Z,5.86
2024-03-14T19:03:14.443Z,5.81
2024-03-14T19:05:18.329Z,5.78
2024-03-14T19:07:21.958Z,5.78
2024-03-14T19:09:25.434Z,5.74
2024-03-14T19:11:28.469Z,5.70
2024-03-14T19:13:31.260Z,5.74
2024-03-14T19:15:34.155Z,5.73
2024-03-14T19:17:38.407Z,5.66
2024-03-14T19:19:41.621Z,5.56
2024-03-14T19:21:46.801Z,5.47
2024-03-14T19:23:49.836Z,5.41
2024-03-14T19:25:52.895Z,5.37
2024-03-14T19:27:57.477Z,5.33
2024-03-14T19:30:00.899Z,5.28
2024-03-14T19:32:05.193Z,5.22
2024-03-14T19:34:13.210Z,5.24
2024-03-14T19:36:18.620Z,5.26
2024-03-14T19:38:22.997Z,5.28
2024-03-14T19:40:26.978Z,5.37
2024-03-14T19:42:30.220Z,5.28
2024-03-14T19:44:32.976Z,5.11
2024-03-14T19:46:38.693Z,4.92
2024-03-14T19:48:47.439Z,4.81
2024-03-14T19:50:50.739Z,4.83
2024-03-14T19:52:54.137Z,4.96
2024-03-14T19:54:58.001Z,5.01
2024-03-14T19:57:01.663Z,5.03
2024-03-14T19:59:04.860Z,4.99
2024-03-14T20:01:09.291Z,4.91
2024-03-14T20:03:13.287Z,4.89
2024-03-14T20:05:17.616Z,4.86
2024-03-14T20:07:22.679Z,4.92
2024-03-14T20:09:26.170Z,4.96
2024-03-14T20:11:29.898Z,4.93
2024-03-14T20:13:32.770Z,4.84
2024-03-14T20:15:35.564Z,4.79
2024-03-14T20:17:38.441Z,4.90
2024-03-14T20:19:42.093Z,4.98
2024-03-14T20:21:46.480Z,5.02
2024-03-14T20:23:50.655Z,4.87
2024-03-14T20:25:53.489Z,4.86
2024-03-14T20:27:56.589Z,4.93
2024-03-14T20:30:00.305Z,5.11
2024-03-14T20:32:06.033Z,5.24
2024-03-14T20:34:09.012Z,5.37
2024-03-14T20:36:12.324Z,5.38
2024-03-14T20:38:15.292Z,5.35
2024-03-14T20:40:18.502Z,5.36
2024-03-14T20:42:22.229Z,5.34
2024-03-14T20:44:27.256Z,5.36
2024-03-14T20:46:30.498Z,5.45
2024-03-14T20:48:34.461Z,5.50
2024-03-14T20:50:37.558Z,5.49
2024-03-14T20:52:40.934Z,5.50
2024-03-14T20:54:55.135Z,5.63
2024-03-14T20:56:58.280Z,5.68
2024-03-14T20:59:01.130Z,5.60
2024-03-14T21:01:04.279Z,5.52
2024-03-14T21:03:26.158Z,5.64
2024-03-14T21:05:28.926Z,5.76
2024-03-14T21:07:31.669Z,5.89
2024-03-14T21:09:34.709Z,6.02
2024-03-14T21:11:40.842Z,6.00
2024-03-14T21:13:43.828Z,5.83
2024-03-14T21:15:47.550Z,5.85
2024-03-14T21:17:50.689Z,5.91
2024-03-14T21:19:54.977Z,5.96
2024-03-14T21:21:58.496Z,5.97
2024-03-14T21:24:03.454Z,5.85
2024-03-14T21:26:06.307Z,5.76
2024-03-14T21:28:09.047Z,5.87
2024-03-14T21:30:12.275Z,5.75
2024-03-14T21:32:15.218Z,5.52
2024-03-14T21:34:18.496Z,5.42
2024-03-14T21:36:21.249Z,5.47
2024-03-14T21:38:25.322Z,5.26
2024-03-14T21:40:28.446Z,5.19
2024-03-14T21:42:31.214Z,5.16
2024-03-14T21:44:40.663Z,5.11
2024-03-14T21:46:43.416Z,5.26
2024-03-14T21:48:46.790Z,5.20
2024-03-14T21:50:49.640Z,5.19
2024-03-14T21:52:52.531Z,5.17
2024-03-14T21:54:55.693Z,5.17
2024-03-14T21:56:59.146Z,5.17
2024-03-14T21:59:01.988Z,5.15
2024-03-14T22:01:07.122Z,5.25
2024-03-14T22:03:10.097Z,5.26
2024-03-14T22:05:14.038Z,5.21
2024-03-14T22:07:19.086Z,5.18
2024-03-14T22:09:23.761Z,5.12
2024-03-14T22:11:27.136Z,5.17
2024-03-14T22:13:30.295Z,5.03
2024-03-14T22:15:33.327Z,4.95
2024-03-14T22:17:37.938Z,5.08
2024-03-14T22:19:40.877Z,5.12
2024-03-14T22:21:44.667Z,4.99
2024-03-14T22:23:48.497Z,5.01
2024-03-14T22:25:51.241Z,5.07
2024-03-14T22:27:56.404Z,5.08
2024-03-14T22:30:00.230Z,4.89
2024-03-14T22:32:06.022Z,4.81
2024-03-14T22:34:08.785Z,4.87
2024-03-14T22:36:12.172Z,5.04
2024-03-14T22:38:14.959Z,4.99
2024-03-14T22:40:17.880Z,5.05
2024-03-14T22:42:20.882Z,5.08
2024-03-14T22:44:24.109Z,4.99
2024-03-14T22:46:27.405Z,4.90
2024-03-14T22:48:30.193Z,4.93
2024-03-14T22:50:34.922Z,5.06
2024-03-14T22:52:37.778Z,5.20
2024-03-14T22:54:41.754Z,5.20
2024-03-14T22:56:44.538Z,5.12
2024-03-14T22:58:47.364Z,5.18
2024-03-14T23:00:50.578Z,5.23
2024-03-14T23:02:53.988Z,5.37
2024-03-14T23:04:56.742Z,5.27
2024-03-14T23:06:59.796Z,5.29
2024-03-14T23:09:02.607Z,5.14
2024-03-14T23:11:05.392Z,5.08
2024-03-14T23:13:08.604Z,5.22
2024-03-14T23:15:12.655Z,5.31
2024-03-14T23:17:16.236Z,5.17
2024-03-14T23:19:19.136Z,5.19
2024-03-14T23:21:21.894Z,5.20
2024-03-14T23:23:27.146Z,5.12
2024-03-14T23:25:31.385Z,5.17
2024-03-14T23:27:34.139Z,5.18
2024-03-14T23:29:36.883Z,5.02
2024-03-14T23:31:40.055Z,5.02
2024-03-14T23:33:42.907Z,4.96
2024-03-14T23:35:46.215Z,4.95
2024-03-14T23:37:49.376Z,4.98
2024-03-14T23:39:52.220Z,4.92
2024-03-14T23:41:57.718Z,4.78
2024-03-14T23:44:00.471Z,4.82
2024-03-14T23:46:03.534Z,4.84
2024-03-14T23:48:07.172Z,4.76
2024-03-14T23:50:10.176Z,4.75
2024-03-14T23:52:12.922Z,4.81
2024-03-14T23:54:15.942Z,4.60
2024-03-14T23:56:19.504Z,4.49
2024-03-14T23:58:22.415Z,4.57
